Time;durP1;ratioP1;P1;durP2;ratioP2;P2;SDS_P1;SDS_P2;PMS_P1;PMS_P2;Temp;Humidity;BMP_temperature;BMP_pressure;BME280_temperature;BME280_humidity;BME280_pressure;Samples;Min_cycle;Max_cycle;Signal;HPM_P1;HPM_P2
2023/12/20 00:01:23;;;;;;;1.60;1.50;;;18.90;57.40;;;;;;5093684;28;20290;-71
2023/12/20 00:03:49;;;;;;;1.63;1.40;;;18.90;57.40;;;;;;5078292;28;20189;-73
2023/12/20 00:06:14;;;;;;;1.35;1.25;;;18.80;57.30;;;;;;5095368;28;20196;-71
2023/12/20 00:08:40;;;;;;;1.67;1.55;;;18.90;57.40;;;;;;5091414;28;20242;-71
2023/12/20 00:11:06;;;;;;;1.67;1.58;;;18.90;57.40;;;;;;5091101;28;20212;-71
2023/12/20 00:13:31;;;;;;;1.63;1.50;;;18.90;57.40;;;;;;5095685;28;20212;-70
2023/12/20 00:15:57;;;;;;;1.92;1.60;;;18.90;57.40;;;;;;5083619;28;20195;-71
2023/12/20 00:18:23;;;;;;;1.42;1.33;;;18.90;57.40;;;;;;5098990;28;20181;-71
2023/12/20 00:20:49;;;;;;;1.58;1.48;;;18.90;57.40;;;;;;5098009;28;20283;-71
2023/12/20 00:23:15;;;;;;;1.52;1.42;;;18.90;57.40;;;;;;5110199;28;20185;-70
2023/12/20 00:25:40;;;;;;;1.60;1.50;;;18.90;57.40;;;;;;5098455;28;20189;-71
2023/12/20 00:28:06;;;;;;;1.55;1.45;;;18.90;57.40;;;;;;5074548;28;20176;-72
2023/12/20 00:30:32;;;;;;;1.77;1.67;;;18.90;57.50;;;;;;5098843;28;20211;-71
2023/12/20 00:32:58;;;;;;;1.63;1.52;;;18.90;57.40;;;;;;5080655;28;20179;-70
2023/12/20 00:35:24;;;;;;;1.55;1.45;;;18.90;57.40;;;;;;5091025;28;20211;-71
2023/12/20 00:37:50;;;;;;;1.48;1.30;;;18.90;57.40;;;;;;5097072;28;20193;-71
2023/12/20 00:40:15;;;;;;;1.85;1.38;;;18.90;57.40;;;;;;5094779;28;20217;-71
2023/12/20 00:42:41;;;;;;;1.50;1.40;;;18.90;57.40;;;;;;5084977;28;20249;-71
2023/12/20 00:45:08;;;;;;;1.40;1.30;;;18.90;57.40;;;;;;5091944;28;20192;-71
2023/12/20 00:47:33;;;;;;;1.95;1.45;;;18.90;57.40;;;;;;5080179;28;20173;-71
2023/12/20 00:49:59;;;;;;;1.52;1.42;;;18.90;57.40;;;;;;5099538;28;20678;-71
2023/12/20 00:52:25;;;;;;;1.38;1.27;;;18.90;57.40;;;;;;5094542;28;20238;-70
2023/12/20 00:54:51;;;;;;;1.40;1.30;;;18.90;57.40;;;;;;5099828;28;20687;-71
2023/12/20 00:57:17;;;;;;;1.70;1.60;;;18.90;57.40;;;;;;5088244;28;20620;-71
2023/12/20 00:59:43;;;;;;;2.00;1.60;;;18.90;57.40;;;;;;5094273;28;20184;-70
2023/12/20 01:02:09;;;;;;;1.60;1.50;;;18.90;57.40;;;;;;5092565;28;20262;-69
2023/12/20 01:04:35;;;;;;;1.38;1.27;;;18.90;57.40;;;;;;5079214;28;20233;-71
2023/12/20 01:07:01;;;;;;;1.60;1.50;;;18.90;57.40;;;;;;5079542;28;20180;-70
2023/12/20 01:09:27;;;;;;;1.30;1.20;;;18.90;57.40;;;;;;5095987;28;20260;-71
2023/12/20 01:11:53;;;;;;;1.50;1.40;;;18.90;57.40;;;;;;5090356;28;20311;-71
2023/12/20 01:14:19;;;;;;;1.52;1.42;;;18.90;57.40;;;;;;5082744;28;20218;-71
2023/12/20 01:16:45;;;;;;;1.40;1.30;;;18.80;57.30;;;;;;5095483;28;20607;-71
2023/12/20 01:19:11;;;;;;;1.50;1.40;;;18.90;57.50;;;;;;5101923;28;20213;-70
2023/12/20 01:21:37;;;;;;;1.35;1.25;;;18.90;57.40;;;;;;5095809;28;20215;-70
2023/12/20 01:24:03;;;;;;;1.55;1.42;;;18.90;57.40;;;;;;5078993;28;20187;-71
2023/12/20 01:26:28;;;;;;;4.25;1.50;;;18.90;57.40;;;;;;5073234;28;20185;-71
2023/12/20 01:28:54;;;;;;;1.10;1.10;;;18.90;57.40;;;;;;5081817;28;20200;-70
2023/12/20 01:31:20;;;;;;;1.50;1.40;;;18.90;57.40;;;;;;5098751;28;20218;-71
2023/12/20 01:33:46;;;;;;;1.40;1.30;;;18.90;57.40;;;;;;5095046;28;20207;-71
2023/12/20 01:36:11;;;;;;;1.40;1.30;;;18.90;57.40;;;;;;5102314;28;20252;-71
2023/12/20 01:38:37;;;;;;;1.35;1.25;;;18.90;57.40;;;;;;5081915;28;20272;-71
2023/12/20 01:41:04;;;;;;;1.45;1.35;;;18.90;57.40;;;;;;5100984;28;20211;-71
2023/12/20 01:43:30;;;;;;;1.20;1.10;;;18.90;57.40;;;;;;5090084;28;20294;-70
2023/12/20 01:46:00;;;;;;;1.40;1.30;;;18.90;57.40;;;;;;5078893;28;20274;-72
2023/12/20 01:48:27;;;;;;;1.60;1.50;;;18.90;57.40;;;;;;5109597;28;20271;-74
2023/12/20 01:50:54;;;;;;;1.60;1.30;;;18.90;58.00;;;;;;5111119;27;20205;-72
2023/12/20 01:53:25;;;;;;;1.42;1.33;;;18.90;57.40;;;;;;5096275;28;20217;-71
2023/12/20 01:55:54;;;;;;;1.40;1.30;;;18.90;57.40;;;;;;5102729;28;20185;-70
2023/12/20 01:58:20;;;;;;;1.33;1.23;;;18.90;57.40;;;;;;5091836;28;20192;-71
2023/12/20 02:00:47;;;;;;;1.10;1.10;;;18.90;57.40;;;;;;5094016;28;20209;-71
2023/12/20 02:03:13;;;;;;;1.30;1.20;;;18.90;57.40;;;;;;5099175;28;20189;-71
2023/12/20 02:05:39;;;;;;;1.48;1.20;;;18.90;57.40;;;;;;5085756;28;20189;-71
2023/12/20 02:08:06;;;;;;;1.20;1.20;;;18.90;57.40;;;;;;5076996;28;20300;-71
2023/12/20 02:10:32;;;;;;;1.20;1.20;;;18.90;57.40;;;;;;5106024;28;20177;-71
2023/12/20 02:12:58;;;;;;;1.23;1.15;;;18.90;57.40;;;;;;5081759;28;20719;-71
2023/12/20 02:15:24;;;;;;;1.10;1.10;;;18.90;57.40;;;;;;5097403;28;20279;-70
2023/12/20 02:17:50;;;;;;;1.20;1.10;;;18.90;57.40;;;;;;5098700;28;20180;-70
2023/12/20 02:20:16;;;;;;;1.30;1.20;;;18.90;57.40;;;;;;5077003;28;20193;-71
2023/12/20 02:22:42;;;;;;;1.20;1.10;;;18.90;57.40;;;;;;5093709;28;20205;-71
2023/12/20 02:25:08;;;;;;;1.30;1.20;;;18.90;57.40;;;;;;5076663;28;20189;-71
2023/12/20 02:27:35;;;;;;;1.40;1.30;;;18.90;57.40;;;;;;5094660;28;20184;-71
2023/12/20 02:30:01;;;;;;;1.48;1.30;;;18.90;57.40;;;;;;5093638;28;20581;-70
2023/12/20 02:32:27;;;;;;;1.58;1.48;;;18.90;57.40;;;;;;5093521;28;20303;-70
2023/12/20 02:34:54;;;;;;;1.00;1.00;;;18.90;57.40;;;;;;5093390;28;20282;-71
2023/12/20 02:37:20;;;;;;;1.20;1.10;;;18.90;57.40;;;;;;5088047;28;20181;-71
2023/12/20 02:39:46;;;;;;;1.40;1.30;;;18.90;57.40;;;;;;5076454;28;20184;-71
2023/12/20 02:42:11;;;;;;;1.00;1.00;;;18.90;57.40;;;;;;5101962;28;20212;-71
2023/12/20 02:44:37;;;;;;;1.38;1.27;;;18.90;57.40;;;;;;5093814;28;20329;-72
2023/12/20 02:47:03;;;;;;;1.30;1.20;;;18.90;57.40;;;;;;5091360;28;20188;-71
2023/12/20 02:49:29;;;;;;;1.25;1.15;;;18.90;57.40;;;;;;5091034;28;20200;-71
2023/12/20 02:51:55;;;;;;;1.15;1.10;;;18.90;57.40;;;;;;5097340;28;20208;-71
2023/12/20 02:54:21;;;;;;;1.27;1.17;;;18.90;57.40;;;;;;5110137;28;20209;-71
2023/12/20 02:56:47;;;;;;;0.98;0.98;;;18.90;57.50;;;;;;5075907;28;20188;-71
2023/12/20 02:59:13;;;;;;;1.27;1.20;;;18.90;57.40;;;;;;5096825;28;20259;-70
2023/12/20 03:01:44;;;;;;;1.27;1.17;;;18.90;57.40;;;;;;5092000;28;20704;-70
2023/12/20 03:04:11;;;;;;;1.13;1.08;;;18.90;57.40;;;;;;5076049;28;20184;-72
2023/12/20 03:06:37;;;;;;;1.23;1.08;;;18.90;57.40;;;;;;5099039;28;20182;-70
2023/12/20 03:09:04;;;;;;;1.20;1.10;;;18.90;57.40;;;;;;5092701;28;20193;-71
2023/12/20 03:11:30;;;;;;;1.20;1.10;;;18.90;57.40;;;;;;5092447;28;20234;-70
2023/12/20 03:13:57;;;;;;;1.67;1.00;;;18.90;57.40;;;;;;5089439;28;20193;-70
2023/12/20 03:16:23;;;;;;;1.20;1.10;;;18.90;57.40;;;;;;5092810;28;20238;-71
2023/12/20 03:18:48;;;;;;;1.27;1.17;;;18.90;57.40;;;;;;5072021;28;20178;-70
2023/12/20 03:21:14;;;;;;;0.90;0.90;;;18.90;57.40;;;;;;5084806;28;20259;-70
2023/12/20 03:23:41;;;;;;;1.10;1.10;;;18.90;57.50;;;;;;5108792;28;20189;-71
2023/12/20 03:26:08;;;;;;;1.35;1.25;;;18.90;57.50;;;;;;5087922;28;20242;-71
2023/12/20 03:28:34;;;;;;;1.23;1.13;;;18.90;57.40;;;;;;5070965;28;20541;-71
2023/12/20 03:31:02;;;;;;;1.15;1.08;;;18.90;57.50;;;;;;5092394;28;20209;-71
2023/12/20 03:33:28;;;;;;;1.15;1.05;;;18.90;57.50;;;;;;5083162;28;20258;-71
2023/12/20 03:35:54;;;;;;;1.15;0.85;;;18.90;57.50;;;;;;5092366;28;20230;-71
2023/12/20 03:38:20;;;;;;;1.13;1.10;;;18.90;57.50;;;;;;5070756;28;20181;-71
2023/12/20 03:40:46;;;;;;;1.00;1.00;;;18.90;57.50;;;;;;5101615;28;20208;-71
2023/12/20 03:43:11;;;;;;;0.90;0.90;;;18.90;57.60;;;;;;5075217;28;20188;-71
2023/12/20 03:45:37;;;;;;;1.17;1.08;;;18.90;57.60;;;;;;5075578;28;20196;-71
2023/12/20 03:48:03;;;;;;;1.27;1.17;;;18.90;57.60;;;;;;5092250;28;20181;-71
2023/12/20 03:50:29;;;;;;;1.00;0.90;;;18.90;57.60;;;;;;5070058;28;20185;-71
2023/12/20 03:52:55;;;;;;;0.80;0.80;;;18.90;57.60;;;;;;5075168;28;20189;-70
2023/12/20 03:55:21;;;;;;;0.90;0.90;;;18.90;57.60;;;;;;5091957;28;20205;-70
2023/12/20 03:57:46;;;;;;;0.95;0.95;;;18.90;57.60;;;;;;5081898;28;20263;-71
2023/12/20 04:00:12;;;;;;;1.10;1.05;;;18.90;57.60;;;;;;5091974;28;20189;-71
2023/12/20 04:02:42;;;;;;;0.90;0.80;;;18.90;57.60;;;;;;5081573;28;20229;-72
2023/12/20 04:05:09;;;;;;;1.17;1.10;;;18.90;57.60;;;;;;5092031;28;20276;-71
2023/12/20 04:07:36;;;;;;;0.80;0.80;;;18.90;57.60;;;;;;5082907;28;20180;-72
2023/12/20 04:10:03;;;;;;;0.75;0.75;;;18.90;57.60;;;;;;5074546;28;20185;-70
2023/12/20 04:12:29;;;;;;;0.82;0.82;;;18.90;57.60;;;;;;5091441;28;20326;-71
2023/12/20 04:14:56;;;;;;;1.23;0.80;;;18.90;57.60;;;;;;5091684;28;20216;-71
2023/12/20 04:17:22;;;;;;;1.10;1.10;;;18.90;57.60;;;;;;5088152;28;20177;-71
2023/12/20 04:19:52;;;;;;;0.63;0.63;;;19.00;57.70;;;;;;5085488;28;20185;-70
2023/12/20 04:22:18;;;;;;;0.80;0.80;;;19.00;57.70;;;;;;5086594;28;20200;-71
2023/12/20 04:24:44;;;;;;;0.90;0.90;;;19.00;57.70;;;;;;5086140;28;20188;-71
2023/12/20 04:27:11;;;;;;;0.80;0.80;;;18.90;57.60;;;;;;5091279;28;20177;-71
2023/12/20 04:29:37;;;;;;;0.93;0.93;;;19.00;57.70;;;;;;5090918;28;20611;-71
2023/12/20 04:32:03;;;;;;;0.60;0.60;;;18.90;57.60;;;;;;5091286;28;20204;-71
2023/12/20 04:34:29;;;;;;;0.80;0.80;;;18.90;57.70;;;;;;5091907;28;20213;-70
2023/12/20 04:36:55;;;;;;;0.90;0.90;;;18.90;57.70;;;;;;5093858;28;20234;-71
2023/12/20 04:39:21;;;;;;;0.80;0.80;;;18.90;57.70;;;;;;5091085;28;20246;-71
2023/12/20 04:41:50;;;;;;;0.70;0.70;;;18.90;57.70;;;;;;5099158;28;20213;-71
2023/12/20 04:44:16;;;;;;;0.50;0.50;;;18.90;57.70;;;;;;5086823;28;20555;-71
2023/12/20 04:46:42;;;;;;;0.70;0.70;;;18.90;57.70;;;;;;5085044;28;20189;-71
2023/12/20 04:49:07;;;;;;;0.70;0.70;;;18.90;57.70;;;;;;5074082;28;20187;-71
2023/12/20 04:51:34;;;;;;;0.70;0.70;;;18.90;57.70;;;;;;5089895;28;20746;-70
2023/12/20 04:54:00;;;;;;;0.70;0.70;;;18.90;57.70;;;;;;5090996;28;20205;-71
2023/12/20 04:56:26;;;;;;;1.30;0.90;;;18.90;57.70;;;;;;5091925;28;20180;-71
2023/12/20 04:58:51;;;;;;;0.70;0.70;;;19.00;57.80;;;;;;5076025;28;20188;-71
2023/12/20 05:01:17;;;;;;;0.68;0.68;;;18.90;57.70;;;;;;5087909;28;20216;-71
2023/12/20 05:03:43;;;;;;;1.73;0.70;;;19.00;57.80;;;;;;5105907;28;20186;-71
2023/12/20 05:06:10;;;;;;;0.60;0.60;;;18.90;57.70;;;;;;5073305;28;20185;-72
2023/12/20 05:08:36;;;;;;;0.60;0.60;;;18.90;57.70;;;;;;5090226;28;20653;-71
2023/12/20 05:11:02;;;;;;;0.57;0.57;;;18.90;57.70;;;;;;5073682;28;20208;-71
2023/12/20 05:13:28;;;;;;;0.50;0.50;;;18.90;57.70;;;;;;5086046;28;20251;-71
2023/12/20 05:15:54;;;;;;;0.68;0.68;;;18.90;57.70;;;;;;5089638;28;20188;-71
2023/12/20 05:18:21;;;;;;;0.95;0.70;;;18.90;57.70;;;;;;5068419;28;20181;-71
2023/12/20 05:20:47;;;;;;;0.63;0.63;;;18.90;57.70;;;;;;5088361;28;20201;-71
2023/12/20 05:23:13;;;;;;;0.70;0.70;;;18.90;57.70;;;;;;5094376;28;20185;-71
2023/12/20 05:25:39;;;;;;;0.63;0.63;;;19.00;57.70;;;;;;5093948;28;20192;-69
2023/12/20 05:28:05;;;;;;;0.95;0.77;;;18.90;57.70;;;;;;5090387;28;20181;-70
2023/12/20 05:30:31;;;;;;;0.50;0.50;;;18.90;57.70;;;;;;5100194;28;20176;-71
2023/12/20 05:32:57;;;;;;;0.60;0.60;;;18.90;57.70;;;;;;5099779;28;20267;-71
2023/12/20 05:35:23;;;;;;;0.70;0.70;;;18.90;57.70;;;;;;5081241;28;20214;-71
2023/12/20 05:37:49;;;;;;;0.50;0.50;;;18.90;57.70;;;;;;5089637;28;20197;-70
2023/12/20 05:40:15;;;;;;;0.60;0.60;;;18.90;57.70;;;;;;5067121;28;20177;-71
2023/12/20 05:42:41;;;;;;;0.57;0.57;;;18.90;57.80;;;;;;5105284;28;20212;-70
2023/12/20 05:45:08;;;;;;;0.70;0.70;;;18.90;57.70;;;;;;5101961;28;20184;-68
2023/12/20 05:47:33;;;;;;;0.63;0.60;;;18.90;57.70;;;;;;5088250;28;20201;-71
2023/12/20 05:49:59;;;;;;;0.80;0.80;;;18.90;57.70;;;;;;5087722;28;20197;-74
2023/12/20 05:52:25;;;;;;;0.57;0.52;;;18.90;57.70;;;;;;5099061;28;20201;-73
2023/12/20 05:54:50;;;;;;;0.63;0.63;;;18.90;57.70;;;;;;5073336;28;20262;-71
2023/12/20 05:57:16;;;;;;;0.75;0.70;;;18.90;57.80;;;;;;5070043;28;20184;-71
2023/12/20 05:59:42;;;;;;;0.50;0.50;;;18.90;57.70;;;;;;5082770;28;20230;-71
2023/12/20 06:02:08;;;;;;;0.50;0.50;;;19.00;57.90;;;;;;5075158;28;20211;-71
2023/12/20 06:04:33;;;;;;;0.60;0.50;;;19.00;57.80;;;;;;5099288;28;20182;-71
2023/12/20 06:07:00;;;;;;;0.40;0.40;;;18.90;57.70;;;;;;5097030;28;20189;-71
2023/12/20 06:09:29;;;;;;;0.55;0.55;;;18.90;57.70;;;;;;5067851;28;20173;-69
2023/12/20 06:11:55;;;;;;;0.63;0.50;;;19.00;57.80;;;;;;5089971;28;20308;-71
2023/12/20 06:14:21;;;;;;;0.60;0.60;;;19.00;57.90;;;;;;5067132;28;20242;-69
2023/12/20 06:16:47;;;;;;;3.13;0.60;;;18.90;57.80;;;;;;5071164;28;20220;-68
2023/12/20 06:19:13;;;;;;;1.27;0.60;;;19.00;57.90;;;;;;5073340;28;20605;-69
2023/12/20 06:21:39;;;;;;;0.60;0.60;;;18.90;58.40;;;;;;5089966;28;20583;-68
2023/12/20 06:24:05;;;;;;;0.68;0.60;;;19.00;57.90;;;;;;5089536;28;20523;-71
2023/12/20 06:26:31;;;;;;;0.57;0.57;;;19.00;57.90;;;;;;5069859;28;20220;-71
2023/12/20 06:28:56;;;;;;;0.50;0.50;;;19.00;57.90;;;;;;5098902;28;20189;-71
2023/12/20 06:31:22;;;;;;;0.73;0.43;;;19.00;57.90;;;;;;5091228;28;20212;-71
2023/12/20 06:33:57;;;;;;;0.43;0.43;;;19.00;57.90;;;;;;5085646;28;20209;-72
2023/12/20 06:36:23;;;;;;;0.50;0.50;;;19.00;57.90;;;;;;5093933;28;20187;-72
2023/12/20 06:38:49;;;;;;;0.50;0.50;;;19.00;58.00;;;;;;5077722;28;20178;-73
2023/12/20 06:41:16;;;;;;;2.05;0.60;;;18.90;57.90;;;;;;5084741;28;20691;-72
2023/12/20 06:43:42;;;;;;;0.63;0.55;;;18.90;57.90;;;;;;5076592;28;20181;-71
2023/12/20 06:46:08;;;;;;;0.50;0.50;;;19.00;58.00;;;;;;5093647;28;20189;-71
2023/12/20 06:48:35;;;;;;;0.40;0.40;;;19.00;58.00;;;;;;5100581;28;20276;-72
2023/12/20 06:51:02;;;;;;;0.60;0.52;;;19.00;57.90;;;;;;5094031;28;20834;-71
2023/12/20 06:53:27;;;;;;;0.70;0.70;;;18.90;57.90;;;;;;5093208;28;20185;-72
2023/12/20 06:55:56;;;;;;;0.52;0.52;;;19.00;58.00;;;;;;5100948;28;20209;-71
2023/12/20 06:58:22;;;;;;;0.93;0.60;;;19.00;58.00;;;;;;5083892;28;20177;-72
2023/12/20 07:00:48;;;;;;;0.82;0.60;;;19.00;58.00;;;;;;5082626;28;20209;-71
2023/12/20 07:03:14;;;;;;;2.08;0.70;;;19.00;58.00;;;;;;5069124;28;20204;-71
2023/12/20 07:05:40;;;;;;;0.80;0.60;;;19.00;58.00;;;;;;5073917;28;20263;-72
2023/12/20 07:08:07;;;;;;;0.50;0.50;;;18.90;57.90;;;;;;5092572;28;20181;-71
2023/12/20 07:10:32;;;;;;;0.40;0.40;;;19.00;58.00;;;;;;5100267;28;20189;-71
2023/12/20 07:12:58;;;;;;;0.88;0.50;;;19.00;58.00;;;;;;5094917;28;20205;-72
2023/12/20 07:15:24;;;;;;;2.05;0.50;;;19.00;58.00;;;;;;5078476;28;20213;-71
2023/12/20 07:17:50;;;;;;;1.05;0.55;;;19.00;58.00;;;;;;5082372;28;20235;-72
2023/12/20 07:20:16;;;;;;;0.40;0.40;;;19.00;58.00;;;;;;5084903;28;20177;-71
2023/12/20 07:22:41;;;;;;;0.95;0.60;;;19.00;58.00;;;;;;5108789;28;20284;-71
2023/12/20 07:25:08;;;;;;;0.60;0.60;;;19.00;58.00;;;;;;5083280;28;20280;-71
2023/12/20 07:27:33;;;;;;;0.57;0.50;;;19.00;58.10;;;;;;5099176;27;20186;-72
2023/12/20 07:29:59;;;;;;;0.40;0.40;;;19.00;58.00;;;;;;5091243;28;20260;-71
2023/12/20 07:32:25;;;;;;;0.40;0.40;;;19.00;58.10;;;;;;5075930;28;20205;-71
2023/12/20 07:34:51;;;;;;;0.70;0.57;;;19.00;58.10;;;;;;5106615;28;20737;-72
2023/12/20 07:37:16;;;;;;;0.82;0.60;;;19.00;58.10;;;;;;5092298;28;20177;-71
2023/12/20 07:39:42;;;;;;;0.47;0.47;;;19.00;58.10;;;;;;5079148;28;20177;-72
2023/12/20 07:42:09;;;;;;;0.45;0.35;;;19.00;58.10;;;;;;5109153;27;20215;-71
2023/12/20 07:44:37;;;;;;;0.60;0.60;;;19.00;58.10;;;;;;5091414;28;20189;-71
2023/12/20 07:47:04;;;;;;;0.95;0.60;;;19.00;58.10;;;;;;5075638;28;20235;-72
2023/12/20 07:49:31;;;;;;;0.43;0.40;;;19.00;58.10;;;;;;5092126;28;20184;-72
2023/12/20 07:51:57;;;;;;;0.85;0.70;;;18.90;58.10;;;;;;5100144;28;20232;-71
2023/12/20 07:54:23;;;;;;;0.60;0.60;;;19.00;58.10;;;;;;5113960;27;20219;-71
2023/12/20 07:56:49;;;;;;;0.55;0.50;;;18.90;58.00;;;;;;5095419;28;20203;-71
2023/12/20 07:59:15;;;;;;;0.40;0.40;;;19.00;58.10;;;;;;5092183;28;20181;-71
2023/12/20 08:01:42;;;;;;;0.45;0.45;;;19.00;58.10;;;;;;5071734;28;20213;-71
2023/12/20 08:04:08;;;;;;;0.50;0.50;;;19.00;58.10;;;;;;5081652;28;20671;-72
2023/12/20 08:06:33;;;;;;;0.45;0.45;;;19.00;58.10;;;;;;5086796;28;20185;-72
2023/12/20 08:08:59;;;;;;;0.40;0.40;;;19.00;58.10;;;;;;5090118;28;20189;-72
2023/12/20 08:11:25;;;;;;;0.52;0.52;;;19.00;58.10;;;;;;5066254;28;20205;-71
2023/12/20 08:13:51;;;;;;;0.38;0.38;;;19.00;58.10;;;;;;5108278;28;20266;-71
2023/12/20 08:16:17;;;;;;;0.35;0.35;;;19.00;58.70;;;;;;5084458;28;20187;-71
2023/12/20 08:18:43;;;;;;;0.47;0.47;;;19.00;58.10;;;;;;5082022;28;20626;-71
2023/12/20 08:21:09;;;;;;;0.40;0.40;;;19.00;58.10;;;;;;5109732;28;20212;-72
2023/12/20 08:23:35;;;;;;;0.40;0.40;;;19.00;58.10;;;;;;5081242;28;20180;-72
2023/12/20 08:26:08;;;;;;;0.55;0.50;;;19.00;58.10;;;;;;5099313;28;20201;-71
2023/12/20 08:28:34;;;;;;;0.60;0.60;;;19.00;58.10;;;;;;5105670;28;20244;-71
2023/12/20 08:31:00;;;;;;;0.35;0.30;;;19.00;58.20;;;;;;5090399;28;20311;-71
2023/12/20 08:33:26;;;;;;;0.65;0.50;;;19.00;58.10;;;;;;5091196;28;20181;-71
2023/12/20 08:35:52;;;;;;;0.50;0.43;;;19.00;58.10;;;;;;5082794;28;20191;-71
2023/12/20 08:38:17;;;;;;;0.40;0.40;;;19.00;58.10;;;;;;5098988;28;20263;-72
2023/12/20 08:40:44;;;;;;;0.98;0.30;;;19.00;58.10;;;;;;5074324;28;20253;-72
2023/12/20 08:43:10;;;;;;;0.50;0.50;;;19.00;58.20;;;;;;5093566;28;20208;-72
2023/12/20 08:45:36;;;;;;;0.40;0.40;;;19.00;58.10;;;;;;5085739;28;20258;-71
2023/12/20 08:48:03;;;;;;;0.63;0.43;;;19.00;58.10;;;;;;5075634;28;20188;-71
2023/12/20 08:50:29;;;;;;;0.80;0.60;;;19.00;58.10;;;;;;5070622;28;20185;-72
2023/12/20 08:52:55;;;;;;;0.65;0.43;;;19.00;58.10;;;;;;5087674;28;20181;-71
2023/12/20 08:55:21;;;;;;;0.40;0.40;;;19.00;58.10;;;;;;5105818;28;20300;-71
2023/12/20 08:57:46;;;;;;;0.52;0.50;;;19.00;58.10;;;;;;5090715;28;20260;-72
2023/12/20 09:00:13;;;;;;;0.40;0.40;;;19.00;58.20;;;;;;5098126;28;20196;-71
2023/12/20 09:02:39;;;;;;;0.40;0.40;;;19.00;58.10;;;;;;5090637;28;20243;-72
2023/12/20 09:05:05;;;;;;;0.43;0.43;;;19.00;58.10;;;;;;5091796;28;20185;-72
2023/12/20 09:07:31;;;;;;;1.35;0.43;;;19.00;58.20;;;;;;5070744;28;20571;-71
2023/12/20 09:09:58;;;;;;;1.15;0.52;;;19.00;58.10;;;;;;5096164;28;20647;-71
2023/12/20 09:12:24;;;;;;;0.73;0.43;;;19.00;58.10;;;;;;5073809;28;20314;-71
2023/12/20 09:14:51;;;;;;;0.30;0.30;;;19.00;58.10;;;;;;5098397;28;20207;-72
2023/12/20 09:17:19;;;;;;;0.40;0.40;;;19.00;58.20;;;;;;5098255;28;20201;-72
2023/12/20 09:19:45;;;;;;;0.45;0.38;;;19.00;58.10;;;;;;5073254;28;20574;-72
2023/12/20 09:22:11;;;;;;;0.50;0.50;;;19.00;58.10;;;;;;5075516;28;20212;-73
2023/12/20 09:24:38;;;;;;;0.52;0.45;;;19.00;58.20;;;;;;5108936;28;20213;-72
2023/12/20 09:27:05;;;;;;;0.40;0.40;;;19.00;58.10;;;;;;5112626;27;20223;-71
2023/12/20 09:29:31;;;;;;;0.73;0.50;;;19.00;58.10;;;;;;5094346;28;20663;-72
2023/12/20 09:31:57;;;;;;;0.75;0.50;;;19.00;58.20;;;;;;5083225;28;20290;-71
2023/12/20 09:34:24;;;;;;;0.30;0.30;;;19.00;58.20;;;;;;5090642;28;20212;-71
2023/12/20 09:36:50;;;;;;;0.38;0.35;;;19.00;58.10;;;;;;5080781;28;20229;-72
2023/12/20 09:39:20;;;;;;;0.52;0.50;;;19.00;58.20;;;;;;5097667;28;20185;-72
2023/12/20 09:42:07;;;;;;;0.50;0.50;;;19.00;58.20;;;;;;5096546;28;20204;-71
2023/12/20 09:44:35;;;;;;;0.50;0.50;;;19.00;58.10;;;;;;5074881;28;20172;-71
2023/12/20 09:47:04;;;;;;;0.50;0.50;;;19.00;58.20;;;;;;5115459;28;20188;-71
2023/12/20 09:49:30;;;;;;;0.40;0.40;;;19.00;58.10;;;;;;5090346;28;20189;-72
2023/12/20 09:51:56;;;;;;;0.60;0.60;;;19.00;58.20;;;;;;5090113;28;20209;-72
2023/12/20 09:54:23;;;;;;;0.30;0.30;;;19.00;58.20;;;;;;5093239;28;20256;-71
2023/12/20 09:56:50;;;;;;;0.30;0.30;;;19.00;58.10;;;;;;5107358;28;20264;-71
2023/12/20 09:59:16;;;;;;;0.55;0.55;;;19.00;58.10;;;;;;5111576;28;20181;-71
2023/12/20 10:01:43;;;;;;;0.82;0.63;;;19.00;58.20;;;;;;5088470;28;20200;-71
2023/12/20 10:04:12;;;;;;;0.30;0.30;;;19.00;58.20;;;;;;5088608;28;20318;-72
2023/12/20 10:06:45;;;;;;;1.00;0.45;;;19.10;58.30;;;;;;5073640;28;20208;-71
2023/12/20 10:09:12;;;;;;;0.52;0.40;;;19.00;58.20;;;;;;5093826;28;20193;-71
2023/12/20 10:11:39;;;;;;;0.40;0.40;;;19.00;58.20;;;;;;5099231;28;20838;-71
2023/12/20 10:14:07;;;;;;;0.30;0.30;;;19.10;58.30;;;;;;5077137;28;20688;-72
2023/12/20 10:16:33;;;;;;;0.38;0.38;;;19.10;58.20;;;;;;5076924;28;20184;-72
2023/12/20 10:19:04;;;;;;;0.40;0.40;;;19.10;58.20;;;;;;5117984;27;20184;-71
2023/12/20 10:21:30;;;;;;;0.50;0.50;;;19.10;58.20;;;;;;5084092;28;20201;-71
2023/12/20 10:23:57;;;;;;;3.35;0.70;;;19.10;58.20;;;;;;5085228;28;20188;-71
2023/12/20 10:26:26;;;;;;;0.70;0.45;;;19.10;58.30;;;;;;5092202;28;20208;-70
2023/12/20 10:28:55;;;;;;;0.38;0.38;;;19.10;58.30;;;;;;5093572;28;20181;-72
2023/12/20 10:31:27;;;;;;;0.50;0.50;;;19.10;58.20;;;;;;5108470;28;20306;-71
2023/12/20 10:33:53;;;;;;;0.52;0.52;;;19.10;58.30;;;;;;5100038;28;20208;-72
2023/12/20 10:36:18;;;;;;;0.65;0.40;;;19.10;58.30;;;;;;5093266;28;20173;-72
2023/12/20 10:38:46;;;;;;;0.65;0.50;;;19.10;58.30;;;;;;5076885;28;20185;-71
2023/12/20 10:41:17;;;;;;;0.50;0.50;;;19.10;58.30;;;;;;5093085;28;20215;-72
2023/12/20 10:43:44;;;;;;;0.50;0.50;;;19.10;58.30;;;;;;5093583;28;20192;-72
2023/12/20 10:46:10;;;;;;;0.40;0.40;;;19.10;58.30;;;;;;5100296;28;20193;-70
2023/12/20 10:48:39;;;;;;;0.40;0.40;;;19.10;58.90;;;;;;5096472;28;20199;-71
2023/12/20 10:51:06;;;;;;;0.40;0.40;;;19.10;58.30;;;;;;5076301;28;20204;-71
2023/12/20 10:53:33;;;;;;;0.50;0.50;;;19.10;58.30;;;;;;5093096;28;20244;-72
2023/12/20 10:56:02;;;;;;;0.50;0.50;;;19.10;58.30;;;;;;5093232;28;20173;-72
2023/12/20 10:58:33;;;;;;;0.60;0.50;;;19.10;58.30;;;;;;5075918;28;20183;-72
2023/12/20 11:01:03;;;;;;;0.47;0.47;;;19.10;58.30;;;;;;5099056;28;20261;-72
2023/12/20 11:03:38;;;;;;;0.70;0.60;;;19.10;58.30;;;;;;5078520;28;20264;-72
2023/12/20 11:06:22;;;;;;;0.73;0.40;;;19.10;58.30;;;;;;5094082;28;20385;-71
2023/12/20 11:09:25;;;;;;;0.43;0.43;;;19.10;58.30;;;;;;5089115;28;20183;-72
2023/12/20 11:12:18;;;;;;;0.40;0.40;;;19.10;58.30;;;;;;5063989;28;20230;-71
2023/12/20 11:14:47;;;;;;;0.60;0.40;;;19.10;58.30;;;;;;5075779;28;20287;-71
2023/12/20 11:17:15;;;;;;;0.50;0.45;;;19.00;58.20;;;;;;5075888;28;20173;-72
2023/12/20 11:19:56;;;;;;;0.80;0.77;;;19.10;58.30;;;;;;5091799;28;20184;-71
2023/12/20 11:22:27;;;;;;;0.65;0.60;;;19.10;58.30;;;;;;5113123;27;20210;-72
2023/12/20 11:24:55;;;;;;;0.75;0.50;;;19.10;58.30;;;;;;5092537;28;20269;-72
2023/12/20 11:27:22;;;;;;;0.52;0.43;;;19.10;58.30;;;;;;5081765;28;20180;-72
2023/12/20 11:29:57;;;;;;;0.50;0.50;;;19.10;58.30;;;;;;5105224;28;20195;-71
2023/12/20 11:32:29;;;;;;;0.38;0.38;;;19.10;58.30;;;;;;5092021;28;20259;-72
2023/12/20 11:35:00;;;;;;;0.40;0.40;;;19.10;58.30;;;;;;5095095;28;20212;-71
2023/12/20 11:37:37;;;;;;;0.60;0.40;;;19.10;58.20;;;;;;5075303;28;20177;-72
2023/12/20 11:40:09;;;;;;;0.60;0.57;;;19.10;58.30;;;;;;5097938;28;20631;-71
2023/12/20 11:42:42;;;;;;;0.63;0.63;;;19.10;58.30;;;;;;5094426;28;20620;-71
2023/12/20 11:45:15;;;;;;;0.98;0.82;;;19.10;58.30;;;;;;5073287;28;20203;-71
2023/12/20 11:47:44;;;;;;;1.05;0.50;;;19.10;58.20;;;;;;5067260;28;20209;-72
2023/12/20 11:50:09;;;;;;;0.60;0.60;;;19.10;58.20;;;;;;5096584;28;20176;-71
2023/12/20 11:52:36;;;;;;;0.75;0.60;;;19.10;58.20;;;;;;5097728;28;20216;-72
2023/12/20 11:55:03;;;;;;;0.60;0.60;;;19.10;58.30;;;;;;5088481;28;20676;-72
2023/12/20 11:57:30;;;;;;;0.52;0.52;;;19.10;58.20;;;;;;5074087;28;20188;-72
2023/12/20 11:59:56;;;;;;;0.68;0.68;;;19.10;58.20;;;;;;5091665;28;20185;-72
2023/12/20 12:02:23;;;;;;;1.42;0.52;;;19.10;58.20;;;;;;5106038;28;20211;-71
2023/12/20 12:04:50;;;;;;;0.80;0.57;;;19.10;58.20;;;;;;5098414;28;20187;-71
2023/12/20 12:07:17;;;;;;;0.70;0.70;;;19.10;58.20;;;;;;5090306;28;20182;-69
2023/12/20 12:09:43;;;;;;;0.60;0.60;;;19.10;58.30;;;;;;5074588;28;20220;-70
2023/12/20 12:12:11;;;;;;;0.80;0.80;;;19.10;58.20;;;;;;5074703;28;20262;-70
2023/12/20 12:14:38;;;;;;;0.73;0.70;;;19.10;58.20;;;;;;5075073;28;20600;-71
2023/12/20 12:17:04;;;;;;;1.45;0.70;;;19.10;58.30;;;;;;5091486;28;20188;-70
2023/12/20 12:19:35;;;;;;;1.08;0.70;;;19.10;58.20;;;;;;5091190;28;20177;-70
2023/12/20 12:22:10;;;;;;;0.88;0.88;;;19.10;58.20;;;;;;5074798;28;20675;-71
2023/12/20 12:24:47;;;;;;;0.88;0.88;;;19.10;58.20;;;;;;5078334;28;20180;-71
2023/12/20 12:27:13;;;;;;;0.80;0.80;;;19.10;58.20;;;;;;5091811;28;20180;-71
2023/12/20 12:29:40;;;;;;;0.88;0.88;;;19.10;58.30;;;;;;5070418;28;20231;-70
2023/12/20 12:32:09;;;;;;;0.80;0.80;;;19.10;58.20;;;;;;5073742;28;20246;-71
2023/12/20 12:34:36;;;;;;;0.90;0.85;;;19.10;58.20;;;;;;5086619;28;20221;-70
2023/12/20 12:37:04;;;;;;;1.55;0.90;;;19.10;58.30;;;;;;5097899;28;20271;-71
2023/12/20 12:39:30;;;;;;;1.13;1.10;;;19.10;58.30;;;;;;5093585;28;20235;-71
2023/12/20 12:41:57;;;;;;;1.30;0.85;;;19.10;58.20;;;;;;5090944;28;20227;-71
2023/12/20 12:44:26;;;;;;;0.82;0.82;;;19.10;58.20;;;;;;5078189;28;20174;-71
2023/12/20 12:46:53;;;;;;;1.08;0.65;;;19.10;58.20;;;;;;5091090;28;20187;-72